KBPG/BPG METAR and TAF weather

Enter ICAO airport designator
Station Type Date Time Source
KBPG METAR 2019/04/16 07:00 UTC NOAA

KBPG 160700Z 15014G18KT 10SM CLR 17/09 A2989


Station Type Date Time Source
KBPG Decoded METAR 2019/04/16 07:00 UTC NOAA

Big Spring, Big Spring McMahon-Wrinkle Airport, TX, United States (KBPG) 32-12N 101-31W
Apr 16, 2019 - 03:00 AM EDT / 2019.04.16 0700 UTC
Wind: from the SSE (150 degrees) at 16 MPH (14 KT) gusting to 21 MPH (18 KT):0
Visibility: 10 mile(s):0
Sky conditions: clear
Temperature: 62 F (17 C)
Dew Point: 48 F (9 C)
Relative Humidity: 59%
Pressure (altimeter): 29.89 in. Hg (1012 hPa)
ob: KBPG 160700Z 15014G18KT 10SM CLR 17/09 A2989
cycle: 7

Station Type Date Time Source
KBPG TAF UTC NOAA

Error!

Example: see airport list